sensor_id;sensor_type;location;lat;lon;timestamp;P1;durP1;ratioP1;P2;durP2;ratioP2
13592;SDS011;6867;50.998;4.250;2022-10-03T00:00:39;8.77;;;5.37;;
13592;SDS011;6867;50.998;4.250;2022-10-03T00:03:29;9.07;;;5.53;;
13592;SDS011;6867;50.998;4.250;2022-10-03T00:06:05;8.63;;;5.50;;
13592;SDS011;6867;50.998;4.250;2022-10-03T00:08:42;6.10;;;4.73;;
13592;SDS011;6867;50.998;4.250;2022-10-03T00:11:26;7.23;;;4.47;;
13592;SDS011;6867;50.998;4.250;2022-10-03T00:14:01;15.40;;;6.80;;
13592;SDS011;6867;50.998;4.250;2022-10-03T00:16:34;15.70;;;6.70;;
13592;SDS011;6867;50.998;4.250;2022-10-03T00:19:11;9.53;;;6.50;;
13592;SDS011;6867;50.998;4.250;2022-10-03T00:21:48;12.07;;;6.63;;
13592;SDS011;6867;50.998;4.250;2022-10-03T00:24:24;8.47;;;5.90;;
13592;SDS011;6867;50.998;4.250;2022-10-03T00:27:07;11.13;;;6.17;;
13592;SDS011;6867;50.998;4.250;2022-10-03T00:29:43;8.30;;;6.00;;
13592;SDS011;6867;50.998;4.250;2022-10-03T00:32:21;9.73;;;6.00;;
13592;SDS011;6867;50.998;4.250;2022-10-03T00:35:04;11.60;;;5.37;;
13592;SDS011;6867;50.998;4.250;2022-10-03T00:37:43;9.90;;;5.27;;
13592;SDS011;6867;50.998;4.250;2022-10-03T00:43:46;8.87;;;5.70;;
13592;SDS011;6867;50.998;4.250;2022-10-03T00:46:38;12.83;;;6.57;;
13592;SDS011;6867;50.998;4.250;2022-10-03T00:49:30;11.13;;;5.77;;
13592;SDS011;6867;50.998;4.250;2022-10-03T00:52:19;11.77;;;5.40;;
13592;SDS011;6867;50.998;4.250;2022-10-03T00:55:04;10.77;;;5.70;;
13592;SDS011;6867;50.998;4.250;2022-10-03T00:57:45;12.73;;;5.93;;
13592;SDS011;6867;50.998;4.250;2022-10-03T01:00:33;11.37;;;5.03;;
13592;SDS011;6867;50.998;4.250;2022-10-03T01:03:07;8.20;;;5.43;;
13592;SDS011;6867;50.998;4.250;2022-10-03T01:05:47;12.53;;;5.97;;
13592;SDS011;6867;50.998;4.250;2022-10-03T01:08:28;10.77;;;5.43;;
13592;SDS011;6867;50.998;4.250;2022-10-03T01:11:11;9.63;;;5.20;;
13592;SDS011;6867;50.998;4.250;2022-10-03T01:13:52;10.97;;;6.20;;
13592;SDS011;6867;50.998;4.250;2022-10-03T01:16:32;9.50;;;5.47;;
13592;SDS011;6867;50.998;4.250;2022-10-03T01:19:11;11.13;;;6.33;;
13592;SDS011;6867;50.998;4.250;2022-10-03T01:21:56;7.30;;;4.90;;
13592;SDS011;6867;50.998;4.250;2022-10-03T01:24:44;9.43;;;5.33;;
13592;SDS011;6867;50.998;4.250;2022-10-03T01:27:27;12.57;;;6.00;;
13592;SDS011;6867;50.998;4.250;2022-10-03T01:30:26;12.20;;;5.50;;
13592;SDS011;6867;50.998;4.250;2022-10-03T01:33:02;10.70;;;4.30;;
13592;SDS011;6867;50.998;4.250;2022-10-03T01:35:37;8.33;;;4.53;;
13592;SDS011;6867;50.998;4.250;2022-10-03T01:38:15;8.90;;;5.60;;
13592;SDS011;6867;50.998;4.250;2022-10-03T01:40:49;8.87;;;5.70;;
13592;SDS011;6867;50.998;4.250;2022-10-03T01:43:29;9.00;;;5.97;;
13592;SDS011;6867;50.998;4.250;2022-10-03T01:46:05;13.87;;;5.73;;
13592;SDS011;6867;50.998;4.250;2022-10-03T01:48:41;9.50;;;5.97;;
13592;SDS011;6867;50.998;4.250;2022-10-03T01:51:18;9.87;;;5.83;;
13592;SDS011;6867;50.998;4.250;2022-10-03T01:53:55;10.40;;;5.70;;
13592;SDS011;6867;50.998;4.250;2022-10-03T01:56:32;9.87;;;5.43;;
13592;SDS011;6867;50.998;4.250;2022-10-03T01:59:04;13.67;;;7.07;;
13592;SDS011;6867;50.998;4.250;2022-10-03T02:01:38;14.93;;;6.40;;
13592;SDS011;6867;50.998;4.250;2022-10-03T02:04:14;9.57;;;6.00;;
13592;SDS011;6867;50.998;4.250;2022-10-03T02:06:50;8.00;;;5.33;;
13592;SDS011;6867;50.998;4.250;2022-10-03T02:09:27;9.97;;;4.87;;
13592;SDS011;6867;50.998;4.250;2022-10-03T02:12:06;6.73;;;4.60;;
13592;SDS011;6867;50.998;4.250;2022-10-03T02:17:26;6.90;;;4.53;;
13592;SDS011;6867;50.998;4.250;2022-10-03T02:20:07;5.97;;;4.37;;
13592;SDS011;6867;50.998;4.250;2022-10-03T02:22:48;9.87;;;5.37;;
13592;SDS011;6867;50.998;4.250;2022-10-03T02:25:23;7.47;;;5.27;;
13592;SDS011;6867;50.998;4.250;2022-10-03T02:37:26;8.50;;;5.27;;
13592;SDS011;6867;50.998;4.250;2022-10-03T02:43:17;7.20;;;4.23;;
13592;SDS011;6867;50.998;4.250;2022-10-03T02:46:35;9.93;;;5.17;;
13592;SDS011;6867;50.998;4.250;2022-10-03T02:49:49;9.67;;;4.53;;
13592;SDS011;6867;50.998;4.250;2022-10-03T02:52:39;4.37;;;3.73;;
13592;SDS011;6867;50.998;4.250;2022-10-03T02:55:27;7.37;;;3.50;;
13592;SDS011;6867;50.998;4.250;2022-10-03T02:58:30;12.50;;;4.37;;
13592;SDS011;6867;50.998;4.250;2022-10-03T03:01:38;4.93;;;3.77;;
13592;SDS011;6867;50.998;4.250;2022-10-03T03:04:53;6.27;;;4.60;;
13592;SDS011;6867;50.998;4.250;2022-10-03T03:07:49;7.57;;;4.03;;
13592;SDS011;6867;50.998;4.250;2022-10-03T03:10:41;8.63;;;4.70;;
13592;SDS011;6867;50.998;4.250;2022-10-03T03:13:49;9.67;;;5.47;;
13592;SDS011;6867;50.998;4.250;2022-10-03T03:16:45;15.70;;;6.87;;
13592;SDS011;6867;50.998;4.250;2022-10-03T03:19:29;14.57;;;6.30;;
13592;SDS011;6867;50.998;4.250;2022-10-03T03:22:12;9.43;;;5.30;;
13592;SDS011;6867;50.998;4.250;2022-10-03T03:28:02;11.60;;;5.40;;
13592;SDS011;6867;50.998;4.250;2022-10-03T03:30:46;11.10;;;5.70;;
13592;SDS011;6867;50.998;4.250;2022-10-03T03:33:20;12.10;;;7.07;;
13592;SDS011;6867;50.998;4.250;2022-10-03T03:35:59;13.47;;;5.93;;
13592;SDS011;6867;50.998;4.250;2022-10-03T03:38:34;11.47;;;6.03;;
13592;SDS011;6867;50.998;4.250;2022-10-03T03:41:13;9.33;;;5.57;;
13592;SDS011;6867;50.998;4.250;2022-10-03T03:43:55;8.53;;;5.53;;
13592;SDS011;6867;50.998;4.250;2022-10-03T03:46:35;10.90;;;5.30;;
13592;SDS011;6867;50.998;4.250;2022-10-03T03:49:15;7.27;;;4.17;;
13592;SDS011;6867;50.998;4.250;2022-10-03T03:51:56;7.57;;;4.33;;
13592;SDS011;6867;50.998;4.250;2022-10-03T03:54:49;5.80;;;4.47;;
13592;SDS011;6867;50.998;4.250;2022-10-03T03:57:36;11.20;;;4.87;;
13592;SDS011;6867;50.998;4.250;2022-10-03T04:00:14;9.67;;;4.53;;
13592;SDS011;6867;50.998;4.250;2022-10-03T04:02:51;8.50;;;5.13;;
13592;SDS011;6867;50.998;4.250;2022-10-03T04:05:36;15.00;;;6.40;;
13592;SDS011;6867;50.998;4.250;2022-10-03T04:08:25;10.60;;;5.80;;
13592;SDS011;6867;50.998;4.250;2022-10-03T04:11:09;9.40;;;5.37;;
13592;SDS011;6867;50.998;4.250;2022-10-03T04:13:53;7.83;;;4.60;;
13592;SDS011;6867;50.998;4.250;2022-10-03T04:16:40;6.07;;;4.30;;
13592;SDS011;6867;50.998;4.250;2022-10-03T04:19:43;7.10;;;3.37;;
13592;SDS011;6867;50.998;4.250;2022-10-03T04:22:27;8.10;;;4.50;;
13592;SDS011;6867;50.998;4.250;2022-10-03T04:25:13;6.83;;;3.93;;
13592;SDS011;6867;50.998;4.250;2022-10-03T04:28:05;11.03;;;5.37;;
13592;SDS011;6867;50.998;4.250;2022-10-03T04:31:01;9.13;;;5.40;;
13592;SDS011;6867;50.998;4.250;2022-10-03T04:33:42;8.77;;;5.30;;
13592;SDS011;6867;50.998;4.250;2022-10-03T04:36:30;9.23;;;5.03;;
13592;SDS011;6867;50.998;4.250;2022-10-03T04:39:15;8.97;;;5.50;;
13592;SDS011;6867;50.998;4.250;2022-10-03T04:41:49;8.90;;;5.73;;
13592;SDS011;6867;50.998;4.250;2022-10-03T04:44:34;9.50;;;5.93;;
13592;SDS011;6867;50.998;4.250;2022-10-03T04:47:14;10.87;;;5.37;;
13592;SDS011;6867;50.998;4.250;2022-10-03T04:49:48;8.77;;;4.90;;
13592;SDS011;6867;50.998;4.250;2022-10-03T04:52:22;8.33;;;5.13;;
13592;SDS011;6867;50.998;4.250;2022-10-03T04:54:58;6.73;;;5.10;;
13592;SDS011;6867;50.998;4.250;2022-10-03T04:57:34;9.87;;;4.70;;
13592;SDS011;6867;50.998;4.250;2022-10-03T05:00:15;7.80;;;4.63;;
13592;SDS011;6867;50.998;4.250;2022-10-03T05:02:50;8.93;;;5.33;;
13592;SDS011;6867;50.998;4.250;2022-10-03T05:05:31;6.03;;;4.70;;
13592;SDS011;6867;50.998;4.250;2022-10-03T05:08:14;8.70;;;4.63;;
13592;SDS011;6867;50.998;4.250;2022-10-03T05:10:49;11.03;;;5.43;;
13592;SDS011;6867;50.998;4.250;2022-10-03T05:13:28;8.87;;;4.97;;
13592;SDS011;6867;50.998;4.250;2022-10-03T05:16:07;7.63;;;4.23;;
13592;SDS011;6867;50.998;4.250;2022-10-03T05:18:44;4.40;;;3.73;;
13592;SDS011;6867;50.998;4.250;2022-10-03T05:21:21;5.77;;;3.87;;
13592;SDS011;6867;50.998;4.250;2022-10-03T05:23:58;5.00;;;3.60;;
13592;SDS011;6867;50.998;4.250;2022-10-03T05:26:38;8.93;;;4.03;;
13592;SDS011;6867;50.998;4.250;2022-10-03T05:29:14;7.07;;;4.30;;
13592;SDS011;6867;50.998;4.250;2022-10-03T05:31:49;9.83;;;5.20;;
13592;SDS011;6867;50.998;4.250;2022-10-03T05:34:32;11.20;;;5.43;;
13592;SDS011;6867;50.998;4.250;2022-10-03T05:37:26;8.47;;;5.50;;
13592;SDS011;6867;50.998;4.250;2022-10-03T05:40:06;8.70;;;4.73;;
13592;SDS011;6867;50.998;4.250;2022-10-03T05:42:50;5.77;;;4.07;;
13592;SDS011;6867;50.998;4.250;2022-10-03T05:45:27;9.27;;;5.57;;
13592;SDS011;6867;50.998;4.250;2022-10-03T05:48:08;10.23;;;5.73;;
13592;SDS011;6867;50.998;4.250;2022-10-03T05:50:52;13.70;;;5.60;;
13592;SDS011;6867;50.998;4.250;2022-10-03T05:56:47;8.67;;;5.93;;
13592;SDS011;6867;50.998;4.250;2022-10-03T05:59:33;8.60;;;5.77;;
13592;SDS011;6867;50.998;4.250;2022-10-03T06:02:16;15.10;;;6.80;;
13592;SDS011;6867;50.998;4.250;2022-10-03T06:05:16;11.10;;;6.73;;
13592;SDS011;6867;50.998;4.250;2022-10-03T06:07:58;13.47;;;6.10;;
13592;SDS011;6867;50.998;4.250;2022-10-03T06:10:41;13.50;;;6.37;;
13592;SDS011;6867;50.998;4.250;2022-10-03T06:13:15;10.27;;;6.10;;
13592;SDS011;6867;50.998;4.250;2022-10-03T06:15:57;8.97;;;5.80;;
13592;SDS011;6867;50.998;4.250;2022-10-03T06:24:55;11.40;;;6.00;;
13592;SDS011;6867;50.998;4.250;2022-10-03T06:31:11;12.70;;;7.40;;
13592;SDS011;6867;50.998;4.250;2022-10-03T06:34:07;16.20;;;6.93;;
13592;SDS011;6867;50.998;4.250;2022-10-03T06:36:47;13.53;;;7.03;;
13592;SDS011;6867;50.998;4.250;2022-10-03T06:42:52;12.53;;;6.67;;
13592;SDS011;6867;50.998;4.250;2022-10-03T06:45:45;15.43;;;7.53;;
13592;SDS011;6867;50.998;4.250;2022-10-03T06:48:28;11.87;;;6.73;;
13592;SDS011;6867;50.998;4.250;2022-10-03T06:51:18;15.93;;;7.90;;
13592;SDS011;6867;50.998;4.250;2022-10-03T06:54:13;13.47;;;7.13;;
13592;SDS011;6867;50.998;4.250;2022-10-03T07:00:07;12.67;;;7.47;;
13592;SDS011;6867;50.998;4.250;2022-10-03T07:05:57;14.97;;;8.80;;
13592;SDS011;6867;50.998;4.250;2022-10-03T07:08:44;15.20;;;8.23;;
13592;SDS011;6867;50.998;4.250;2022-10-03T07:12:00;22.13;;;9.80;;
13592;SDS011;6867;50.998;4.250;2022-10-03T07:15:09;14.80;;;8.13;;
13592;SDS011;6867;50.998;4.250;2022-10-03T07:17:50;16.90;;;9.50;;
13592;SDS011;6867;50.998;4.250;2022-10-03T07:20:37;18.30;;;9.40;;
13592;SDS011;6867;50.998;4.250;2022-10-03T07:23:40;14.67;;;8.90;;
13592;SDS011;6867;50.998;4.250;2022-10-03T07:26:36;17.50;;;9.30;;
13592;SDS011;6867;50.998;4.250;2022-10-03T07:29:29;15.83;;;9.03;;
13592;SDS011;6867;50.998;4.250;2022-10-03T07:35:25;16.73;;;8.50;;
13592;SDS011;6867;50.998;4.250;2022-10-03T07:38:24;17.23;;;8.77;;
13592;SDS011;6867;50.998;4.250;2022-10-03T07:44:30;18.53;;;8.50;;
13592;SDS011;6867;50.998;4.250;2022-10-03T07:47:31;15.60;;;9.30;;
13592;SDS011;6867;50.998;4.250;2022-10-03T07:53:25;20.07;;;9.17;;
13592;SDS011;6867;50.998;4.250;2022-10-03T07:56:18;14.60;;;9.03;;
13592;SDS011;6867;50.998;4.250;2022-10-03T07:59:07;14.83;;;8.80;;
13592;SDS011;6867;50.998;4.250;2022-10-03T08:01:53;21.07;;;9.20;;
13592;SDS011;6867;50.998;4.250;2022-10-03T08:04:48;18.57;;;8.97;;
13592;SDS011;6867;50.998;4.250;2022-10-03T08:07:46;17.53;;;9.07;;
13592;SDS011;6867;50.998;4.250;2022-10-03T08:10:43;22.73;;;7.83;;
13592;SDS011;6867;50.998;4.250;2022-10-03T08:13:34;15.13;;;7.40;;
13592;SDS011;6867;50.998;4.250;2022-10-03T08:16:22;19.97;;;7.97;;
13592;SDS011;6867;50.998;4.250;2022-10-03T08:19:07;20.17;;;8.73;;
13592;SDS011;6867;50.998;4.250;2022-10-03T08:21:50;19.50;;;8.53;;
13592;SDS011;6867;50.998;4.250;2022-10-03T08:24:27;15.23;;;8.07;;
13592;SDS011;6867;50.998;4.250;2022-10-03T08:27:22;15.70;;;8.33;;
13592;SDS011;6867;50.998;4.250;2022-10-03T08:32:57;21.47;;;9.17;;
13592;SDS011;6867;50.998;4.250;2022-10-03T08:48:12;12.10;;;6.63;;
13592;SDS011;6867;50.998;4.250;2022-10-03T08:54:23;15.47;;;7.13;;
13592;SDS011;6867;50.998;4.250;2022-10-03T08:57:17;20.17;;;6.93;;
13592;SDS011;6867;50.998;4.250;2022-10-03T09:00:03;12.53;;;5.77;;
13592;SDS011;6867;50.998;4.250;2022-10-03T09:02:50;13.97;;;6.10;;
13592;SDS011;6867;50.998;4.250;2022-10-03T09:08:55;12.57;;;4.93;;
13592;SDS011;6867;50.998;4.250;2022-10-03T09:14:48;15.90;;;5.33;;
13592;SDS011;6867;50.998;4.250;2022-10-03T09:23:55;14.38;;;5.10;;
13592;SDS011;6867;50.998;4.250;2022-10-03T09:26:53;10.18;;;3.63;;
13592;SDS011;6867;50.998;4.250;2022-10-03T09:45:32;11.60;;;4.40;;
13592;SDS011;6867;50.998;4.250;2022-10-03T09:51:20;13.57;;;3.00;;
13592;SDS011;6867;50.998;4.250;2022-10-03T09:57:13;8.50;;;3.03;;
13592;SDS011;6867;50.998;4.250;2022-10-03T10:00:07;11.80;;;2.92;;
13592;SDS011;6867;50.998;4.250;2022-10-03T10:09:19;8.45;;;2.28;;
13592;SDS011;6867;50.998;4.250;2022-10-03T10:18:29;6.65;;;2.78;;
13592;SDS011;6867;50.998;4.250;2022-10-03T10:21:34;11.10;;;3.15;;
13592;SDS011;6867;50.998;4.250;2022-10-03T10:24:27;6.43;;;2.08;;
13592;SDS011;6867;50.998;4.250;2022-10-03T10:27:36;8.52;;;2.85;;
13592;SDS011;6867;50.998;4.250;2022-10-03T10:30:20;10.65;;;2.83;;
13592;SDS011;6867;50.998;4.250;2022-10-03T10:33:02;8.60;;;2.58;;
13592;SDS011;6867;50.998;4.250;2022-10-03T10:36:09;8.88;;;2.30;;
13592;SDS011;6867;50.998;4.250;2022-10-03T10:42:11;8.30;;;2.22;;
13592;SDS011;6867;50.998;4.250;2022-10-03T10:51:07;5.68;;;2.15;;
13592;SDS011;6867;50.998;4.250;2022-10-03T10:57:09;3.88;;;1.27;;
13592;SDS011;6867;50.998;4.250;2022-10-03T11:09:09;6.30;;;2.08;;
13592;SDS011;6867;50.998;4.250;2022-10-03T11:18:36;7.65;;;2.33;;
13592;SDS011;6867;50.998;4.250;2022-10-03T11:21:34;7.03;;;1.92;;
13592;SDS011;6867;50.998;4.250;2022-10-03T11:25:00;6.97;;;1.85;;
13592;SDS011;6867;50.998;4.250;2022-10-03T11:28:20;7.80;;;1.77;;
13592;SDS011;6867;50.998;4.250;2022-10-03T11:34:29;8.70;;;1.90;;
13592;SDS011;6867;50.998;4.250;2022-10-03T11:37:27;5.72;;;1.33;;
13592;SDS011;6867;50.998;4.250;2022-10-03T11:40:20;4.40;;;1.30;;
13592;SDS011;6867;50.998;4.250;2022-10-03T11:42:55;3.67;;;1.33;;
13592;SDS011;6867;50.998;4.250;2022-10-03T11:45:48;3.10;;;1.23;;
13592;SDS011;6867;50.998;4.250;2022-10-03T11:48:26;5.65;;;1.48;;
13592;SDS011;6867;50.998;4.250;2022-10-03T11:51:06;6.72;;;1.58;;
13592;SDS011;6867;50.998;4.250;2022-10-03T11:53:40;4.35;;;1.52;;
13592;SDS011;6867;50.998;4.250;2022-10-03T11:59:29;7.03;;;1.38;;
13592;SDS011;6867;50.998;4.250;2022-10-03T12:02:14;4.95;;;1.50;;
13592;SDS011;6867;50.998;4.250;2022-10-03T12:04:53;8.80;;;1.45;;
13592;SDS011;6867;50.998;4.250;2022-10-03T12:07:35;5.20;;;1.40;;
13592;SDS011;6867;50.998;4.250;2022-10-03T12:10:30;5.22;;;1.58;;
13592;SDS011;6867;50.998;4.250;2022-10-03T12:13:05;3.28;;;1.38;;
13592;SDS011;6867;50.998;4.250;2022-10-03T12:15:38;3.55;;;1.27;;
13592;SDS011;6867;50.998;4.250;2022-10-03T12:18:09;9.85;;;1.90;;
13592;SDS011;6867;50.998;4.250;2022-10-03T12:21:01;3.83;;;1.40;;
13592;SDS011;6867;50.998;4.250;2022-10-03T12:23:43;5.28;;;1.67;;
13592;SDS011;6867;50.998;4.250;2022-10-03T12:29:16;9.43;;;1.67;;
13592;SDS011;6867;50.998;4.250;2022-10-03T12:31:47;11.00;;;1.75;;
13592;SDS011;6867;50.998;4.250;2022-10-03T12:34:28;8.20;;;1.70;;
13592;SDS011;6867;50.998;4.250;2022-10-03T12:37:07;6.38;;;2.13;;
13592;SDS011;6867;50.998;4.250;2022-10-03T12:39:47;5.15;;;2.03;;
13592;SDS011;6867;50.998;4.250;2022-10-03T12:42:29;5.20;;;1.23;;
13592;SDS011;6867;50.998;4.250;2022-10-03T12:45:00;3.60;;;1.67;;
13592;SDS011;6867;50.998;4.250;2022-10-03T12:47:34;4.82;;;1.55;;
13592;SDS011;6867;50.998;4.250;2022-10-03T12:50:20;6.93;;;1.50;;
13592;SDS011;6867;50.998;4.250;2022-10-03T12:53:03;4.35;;;1.23;;
13592;SDS011;6867;50.998;4.250;2022-10-03T12:55:58;7.82;;;1.88;;
13592;SDS011;6867;50.998;4.250;2022-10-03T12:58:32;5.18;;;1.50;;
13592;SDS011;6867;50.998;4.250;2022-10-03T13:01:10;3.70;;;1.27;;
13592;SDS011;6867;50.998;4.250;2022-10-03T13:03:46;5.20;;;1.65;;
13592;SDS011;6867;50.998;4.250;2022-10-03T13:09:11;4.20;;;1.40;;
13592;SDS011;6867;50.998;4.250;2022-10-03T13:11:56;6.57;;;1.88;;
13592;SDS011;6867;50.998;4.250;2022-10-03T13:14:34;4.38;;;1.50;;
13592;SDS011;6867;50.998;4.250;2022-10-03T13:17:30;5.88;;;1.50;;
13592;SDS011;6867;50.998;4.250;2022-10-03T13:20:06;5.53;;;1.50;;
13592;SDS011;6867;50.998;4.250;2022-10-03T13:22:42;3.28;;;1.58;;
13592;SDS011;6867;50.998;4.250;2022-10-03T13:25:13;4.47;;;1.30;;
13592;SDS011;6867;50.998;4.250;2022-10-03T13:27:48;8.27;;;1.52;;
13592;SDS011;6867;50.998;4.250;2022-10-03T13:30:23;5.80;;;1.63;;
13592;SDS011;6867;50.998;4.250;2022-10-03T13:32:55;5.13;;;1.30;;
13592;SDS011;6867;50.998;4.250;2022-10-03T13:35:31;4.35;;;1.45;;
13592;SDS011;6867;50.998;4.250;2022-10-03T13:38:33;5.93;;;1.30;;
13592;SDS011;6867;50.998;4.250;2022-10-03T13:41:21;9.63;;;2.10;;
13592;SDS011;6867;50.998;4.250;2022-10-03T13:43:55;4.20;;;1.75;;
13592;SDS011;6867;50.998;4.250;2022-10-03T13:46:28;4.63;;;1.73;;
13592;SDS011;6867;50.998;4.250;2022-10-03T13:49:04;8.77;;;1.58;;
13592;SDS011;6867;50.998;4.250;2022-10-03T13:51:44;5.55;;;1.50;;
13592;SDS011;6867;50.998;4.250;2022-10-03T13:54:19;9.07;;;1.88;;
13592;SDS011;6867;50.998;4.250;2022-10-03T13:56:55;2.92;;;1.83;;
13592;SDS011;6867;50.998;4.250;2022-10-03T13:59:35;7.43;;;2.25;;
13592;SDS011;6867;50.998;4.250;2022-10-03T14:05:35;6.03;;;2.10;;
13592;SDS011;6867;50.998;4.250;2022-10-03T14:08:18;9.77;;;2.20;;
13592;SDS011;6867;50.998;4.250;2022-10-03T14:14:05;6.30;;;1.98;;
13592;SDS011;6867;50.998;4.250;2022-10-03T14:16:51;4.30;;;1.77;;
13592;SDS011;6867;50.998;4.250;2022-10-03T14:19:25;6.47;;;2.03;;
13592;SDS011;6867;50.998;4.250;2022-10-03T14:22:12;7.57;;;2.40;;
13592;SDS011;6867;50.998;4.250;2022-10-03T14:25:00;6.95;;;2.17;;
13592;SDS011;6867;50.998;4.250;2022-10-03T14:27:45;6.35;;;2.15;;
13592;SDS011;6867;50.998;4.250;2022-10-03T14:30:15;9.85;;;2.53;;
13592;SDS011;6867;50.998;4.250;2022-10-03T14:32:56;3.35;;;1.40;;
13592;SDS011;6867;50.998;4.250;2022-10-03T14:35:35;8.77;;;2.03;;
13592;SDS011;6867;50.998;4.250;2022-10-03T14:38:14;4.43;;;1.70;;
13592;SDS011;6867;50.998;4.250;2022-10-03T14:41:15;5.20;;;2.15;;
13592;SDS011;6867;50.998;4.250;2022-10-03T14:43:45;5.28;;;2.05;;
13592;SDS011;6867;50.998;4.250;2022-10-03T14:46:17;5.57;;;2.08;;
13592;SDS011;6867;50.998;4.250;2022-10-03T14:48:48;4.88;;;1.73;;
13592;SDS011;6867;50.998;4.250;2022-10-03T14:51:18;5.65;;;1.42;;
13592;SDS011;6867;50.998;4.250;2022-10-03T14:53:50;5.57;;;2.08;;
13592;SDS011;6867;50.998;4.250;2022-10-03T14:56:19;4.10;;;1.55;;
13592;SDS011;6867;50.998;4.250;2022-10-03T14:58:49;4.95;;;2.13;;
13592;SDS011;6867;50.998;4.250;2022-10-03T15:01:18;8.57;;;1.88;;
13592;SDS011;6867;50.998;4.250;2022-10-03T15:03:52;4.93;;;2.50;;
13592;SDS011;6867;50.998;4.250;2022-10-03T15:09:20;4.45;;;1.90;;
13592;SDS011;6867;50.998;4.250;2022-10-03T15:11:51;6.85;;;1.48;;
13592;SDS011;6867;50.998;4.250;2022-10-03T15:14:24;4.97;;;1.65;;
13592;SDS011;6867;50.998;4.250;2022-10-03T15:16:55;4.93;;;1.52;;
13592;SDS011;6867;50.998;4.250;2022-10-03T15:19:28;7.72;;;1.58;;
13592;SDS011;6867;50.998;4.250;2022-10-03T15:22:03;4.55;;;1.65;;
13592;SDS011;6867;50.998;4.250;2022-10-03T15:24:37;4.45;;;1.55;;
13592;SDS011;6867;50.998;4.250;2022-10-03T15:27:07;6.38;;;1.67;;
13592;SDS011;6867;50.998;4.250;2022-10-03T15:29:38;6.50;;;1.95;;
13592;SDS011;6867;50.998;4.250;2022-10-03T15:32:06;4.55;;;1.77;;
13592;SDS011;6867;50.998;4.250;2022-10-03T15:34:46;6.28;;;1.95;;
13592;SDS011;6867;50.998;4.250;2022-10-03T15:37:14;2.50;;;1.65;;
13592;SDS011;6867;50.998;4.250;2022-10-03T15:39:43;6.30;;;2.55;;
13592;SDS011;6867;50.998;4.250;2022-10-03T15:42:18;4.60;;;1.90;;
13592;SDS011;6867;50.998;4.250;2022-10-03T15:44:48;7.28;;;1.60;;
13592;SDS011;6867;50.998;4.250;2022-10-03T15:47:18;8.15;;;2.42;;
13592;SDS011;6867;50.998;4.250;2022-10-03T15:49:51;6.50;;;1.65;;
13592;SDS011;6867;50.998;4.250;2022-10-03T15:52:20;5.70;;;1.77;;
13592;SDS011;6867;50.998;4.250;2022-10-03T15:54:52;8.70;;;2.25;;
13592;SDS011;6867;50.998;4.250;2022-10-03T15:57:23;4.30;;;1.70;;
13592;SDS011;6867;50.998;4.250;2022-10-03T15:59:53;7.78;;;1.80;;
13592;SDS011;6867;50.998;4.250;2022-10-03T16:02:24;5.65;;;1.90;;
13592;SDS011;6867;50.998;4.250;2022-10-03T16:04:58;8.35;;;1.75;;
13592;SDS011;6867;50.998;4.250;2022-10-03T16:07:31;6.55;;;1.42;;
13592;SDS011;6867;50.998;4.250;2022-10-03T16:10:12;5.13;;;1.50;;
13592;SDS011;6867;50.998;4.250;2022-10-03T16:12:49;3.83;;;1.45;;
13592;SDS011;6867;50.998;4.250;2022-10-03T16:15:22;3.25;;;1.73;;
13592;SDS011;6867;50.998;4.250;2022-10-03T16:17:58;3.75;;;1.42;;
13592;SDS011;6867;50.998;4.250;2022-10-03T16:20:29;14.50;;;2.35;;
13592;SDS011;6867;50.998;4.250;2022-10-03T16:23:03;3.90;;;2.05;;
13592;SDS011;6867;50.998;4.250;2022-10-03T16:25:38;6.05;;;1.98;;
13592;SDS011;6867;50.998;4.250;2022-10-03T16:28:11;6.13;;;1.50;;
13592;SDS011;6867;50.998;4.250;2022-10-03T16:30:44;6.28;;;1.63;;
13592;SDS011;6867;50.998;4.250;2022-10-03T16:33:18;9.05;;;2.00;;
13592;SDS011;6867;50.998;4.250;2022-10-03T16:35:52;8.95;;;2.05;;
13592;SDS011;6867;50.998;4.250;2022-10-03T16:38:23;5.32;;;2.60;;
13592;SDS011;6867;50.998;4.250;2022-10-03T16:40:52;4.25;;;1.90;;
13592;SDS011;6867;50.998;4.250;2022-10-03T16:43:22;5.10;;;1.63;;
13592;SDS011;6867;50.998;4.250;2022-10-03T16:45:50;7.15;;;2.35;;
13592;SDS011;6867;50.998;4.250;2022-10-03T16:48:19;8.18;;;2.08;;
13592;SDS011;6867;50.998;4.250;2022-10-03T16:51:18;3.38;;;1.75;;
13592;SDS011;6867;50.998;4.250;2022-10-03T16:53:49;3.75;;;1.88;;
13592;SDS011;6867;50.998;4.250;2022-10-03T16:56:19;4.78;;;2.08;;
13592;SDS011;6867;50.998;4.250;2022-10-03T16:58:51;3.03;;;1.85;;
13592;SDS011;6867;50.998;4.250;2022-10-03T17:01:28;4.32;;;1.60;;
13592;SDS011;6867;50.998;4.250;2022-10-03T17:04:01;7.95;;;1.75;;
13592;SDS011;6867;50.998;4.250;2022-10-03T17:06:43;5.72;;;1.92;;
13592;SDS011;6867;50.998;4.250;2022-10-03T17:09:14;7.32;;;1.73;;
13592;SDS011;6867;50.998;4.250;2022-10-03T17:11:50;3.20;;;1.80;;
13592;SDS011;6867;50.998;4.250;2022-10-03T17:14:20;3.78;;;1.27;;
13592;SDS011;6867;50.998;4.250;2022-10-03T17:16:49;8.95;;;1.85;;
13592;SDS011;6867;50.998;4.250;2022-10-03T17:19:25;6.03;;;2.05;;
13592;SDS011;6867;50.998;4.250;2022-10-03T17:22:04;4.97;;;2.13;;
13592;SDS011;6867;50.998;4.250;2022-10-03T17:24:41;4.35;;;1.63;;
13592;SDS011;6867;50.998;4.250;2022-10-03T17:27:19;4.18;;;2.03;;
13592;SDS011;6867;50.998;4.250;2022-10-03T17:29:54;6.47;;;2.30;;
13592;SDS011;6867;50.998;4.250;2022-10-03T17:32:26;6.80;;;3.38;;
13592;SDS011;6867;50.998;4.250;2022-10-03T17:35:06;8.93;;;3.33;;
13592;SDS011;6867;50.998;4.250;2022-10-03T17:37:45;6.28;;;2.85;;
13592;SDS011;6867;50.998;4.250;2022-10-03T17:40:22;10.43;;;4.38;;
13592;SDS011;6867;50.998;4.250;2022-10-03T17:43:01;14.98;;;7.80;;
13592;SDS011;6867;50.998;4.250;2022-10-03T17:45:37;12.43;;;6.35;;
13592;SDS011;6867;50.998;4.250;2022-10-03T17:48:11;12.47;;;4.77;;
13592;SDS011;6867;50.998;4.250;2022-10-03T17:50:49;8.98;;;4.18;;
13592;SDS011;6867;50.998;4.250;2022-10-03T17:53:25;7.82;;;3.95;;
13592;SDS011;6867;50.998;4.250;2022-10-03T17:55:54;9.10;;;3.77;;
13592;SDS011;6867;50.998;4.250;2022-10-03T17:58:24;9.27;;;4.80;;
13592;SDS011;6867;50.998;4.250;2022-10-03T18:00:58;8.60;;;4.50;;
13592;SDS011;6867;50.998;4.250;2022-10-03T18:03:32;8.35;;;4.93;;
13592;SDS011;6867;50.998;4.250;2022-10-03T18:09:05;8.45;;;5.30;;
13592;SDS011;6867;50.998;4.250;2022-10-03T18:11:36;10.57;;;4.97;;
13592;SDS011;6867;50.998;4.250;2022-10-03T18:14:07;6.63;;;4.00;;
13592;SDS011;6867;50.998;4.250;2022-10-03T18:16:43;6.97;;;4.30;;
13592;SDS011;6867;50.998;4.250;2022-10-03T18:19:16;8.50;;;4.27;;
13592;SDS011;6867;50.998;4.250;2022-10-03T18:22:03;5.65;;;4.13;;
13592;SDS011;6867;50.998;4.250;2022-10-03T18:24:44;6.63;;;3.97;;
13592;SDS011;6867;50.998;4.250;2022-10-03T18:30:48;9.50;;;4.15;;
13592;SDS011;6867;50.998;4.250;2022-10-03T18:33:18;6.67;;;4.00;;
13592;SDS011;6867;50.998;4.250;2022-10-03T18:35:49;9.13;;;4.27;;
13592;SDS011;6867;50.998;4.250;2022-10-03T18:38:18;8.37;;;5.60;;
13592;SDS011;6867;50.998;4.250;2022-10-03T18:40:50;8.83;;;4.37;;
13592;SDS011;6867;50.998;4.250;2022-10-03T18:43:30;7.60;;;4.90;;
13592;SDS011;6867;50.998;4.250;2022-10-03T18:46:02;6.00;;;4.27;;
13592;SDS011;6867;50.998;4.250;2022-10-03T18:48:37;5.17;;;4.57;;
13592;SDS011;6867;50.998;4.250;2022-10-03T18:51:11;8.07;;;5.27;;
13592;SDS011;6867;50.998;4.250;2022-10-03T18:53:43;6.60;;;4.63;;
13592;SDS011;6867;50.998;4.250;2022-10-03T18:56:17;7.60;;;5.37;;
13592;SDS011;6867;50.998;4.250;2022-10-03T18:58:52;10.20;;;5.27;;
13592;SDS011;6867;50.998;4.250;2022-10-03T19:01:35;12.37;;;5.77;;
13592;SDS011;6867;50.998;4.250;2022-10-03T19:04:11;10.83;;;6.77;;
13592;SDS011;6867;50.998;4.250;2022-10-03T19:06:43;13.03;;;7.20;;
13592;SDS011;6867;50.998;4.250;2022-10-03T19:09:13;11.87;;;7.80;;
13592;SDS011;6867;50.998;4.250;2022-10-03T19:11:46;12.53;;;7.00;;
13592;SDS011;6867;50.998;4.250;2022-10-03T19:14:24;18.93;;;8.20;;
13592;SDS011;6867;50.998;4.250;2022-10-03T19:16:58;13.27;;;7.63;;
13592;SDS011;6867;50.998;4.250;2022-10-03T19:19:48;10.87;;;7.40;;